Time;durP1;ratioP1;P1;durP2;ratioP2;P2;SDS_P1;SDS_P2;PMS_P1;PMS_P2;Temp;Humidity;BMP_temperature;BMP_pressure;BME280_temperature;BME280_humidity;BME280_pressure;Samples;Min_cycle;Max_cycle;Signal;HPM_P1;HPM_P2
2022/06/21 00:02:21;;;;;;;7.28;4.80;;;;;;;21.88;60.55;99350.50;5036110;28;20027;-68
2022/06/21 00:04:47;;;;;;;7.82;4.20;;;;;;;21.95;59.83;99356.53;5038493;28;20236;-68
2022/06/21 00:07:20;;;;;;;6.60;4.20;;;;;;;21.98;59.27;99352.53;5036221;28;20232;-68
2022/06/21 00:09:45;;;;;;;15.45;5.00;;;;;;;21.80;60.07;99348.19;5036759;28;20064;-68
2022/06/21 00:12:12;;;;;;;6.93;4.53;;;;;;;21.83;60.55;99341.47;5038484;28;20037;-68
2022/06/21 00:14:39;;;;;;;8.07;4.30;;;;;;;21.65;61.32;99337.97;5039061;28;20041;-68
2022/06/21 00:17:05;;;;;;;6.90;4.90;;;;;;;21.64;61.63;99340.91;5041779;28;20049;-68
2022/06/21 00:19:31;;;;;;;12.30;4.63;;;;;;;21.77;61.30;99331.69;5038240;28;20033;-68
2022/06/21 00:21:56;;;;;;;6.97;4.68;;;;;;;21.72;61.71;99329.72;5038345;28;20351;-67
2022/06/21 00:24:22;;;;;;;7.35;5.40;;;;;;;21.71;62.04;99330.78;5037997;28;20033;-68
2022/06/21 00:26:47;;;;;;;8.80;5.43;;;;;;;21.65;61.94;99313.72;5041501;28;20231;-68
2022/06/21 00:29:13;;;;;;;8.13;5.25;;;;;;;21.65;62.15;99324.50;5038921;28;20063;-68
2022/06/21 00:31:45;;;;;;;10.10;5.55;;;;;;;21.56;62.55;99317.06;5036704;28;20045;-68
2022/06/21 00:34:21;;;;;;;9.45;5.25;;;;;;;21.48;62.91;99323.66;5036286;28;20315;-68
2022/06/21 00:36:48;;;;;;;10.80;5.93;;;;;;;21.43;63.09;99320.88;5034625;28;20021;-68
2022/06/21 00:39:16;;;;;;;9.95;5.43;;;;;;;21.49;63.50;99328.00;5035501;28;20033;-68
2022/06/21 00:42:01;;;;;;;10.48;6.00;;;;;;;21.38;63.91;99334.25;5034471;28;20067;-68
2022/06/21 00:44:36;;;;;;;13.85;5.97;;;;;;;21.40;63.75;99340.22;5036419;28;20434;-68
2022/06/21 00:47:13;;;;;;;8.90;5.93;;;;;;;21.40;63.85;99336.72;5037393;28;20026;-68
2022/06/21 00:50:00;;;;;;;11.07;5.70;;;;;;;21.26;64.46;99333.50;5034360;28;20040;-68
2022/06/21 00:52:58;;;;;;;8.43;6.28;;;;;;;21.28;64.45;99332.19;5034987;28;20044;-68
2022/06/21 00:55:34;;;;;;;7.40;6.28;;;;;;;21.12;65.71;99329.44;5035816;28;20072;-68
2022/06/21 00:58:00;;;;;;;12.18;7.35;;;;;;;21.21;65.53;99328.81;5041105;28;20091;-68
2022/06/21 01:00:30;;;;;;;11.95;6.53;;;;;;;21.26;65.51;99325.41;5037420;28;20040;-68
2022/06/21 01:02:57;;;;;;;12.85;7.00;;;;;;;21.31;65.32;99328.22;5036042;28;20069;-68
2022/06/21 01:05:26;;;;;;;10.77;6.57;;;;;;;21.17;65.47;99311.50;5036053;28;20040;-68
2022/06/21 01:07:55;;;;;;;8.07;5.82;;;;;;;21.06;66.22;99309.69;5035960;28;20029;-68
2022/06/21 01:10:23;;;;;;;8.25;6.30;;;;;;;21.03;66.27;99302.91;5037678;28;20098;-68
2022/06/21 01:12:53;;;;;;;13.02;6.35;;;;;;;21.01;66.76;99309.59;5035272;28;20099;-68
2022/06/21 01:15:23;;;;;;;13.05;6.35;;;;;;;20.93;67.03;99294.63;5036213;28;20100;-68
2022/06/21 01:17:54;;;;;;;9.43;5.80;;;;;;;20.97;67.05;99311.13;5037555;28;20044;-68
2022/06/21 01:20:22;;;;;;;8.88;6.20;;;;;;;20.86;67.66;99306.59;5040790;28;20045;-68
2022/06/21 01:23:06;;;;;;;8.80;6.15;;;;;;;20.83;67.95;99305.19;5037973;28;20119;-68
2022/06/21 01:26:09;;;;;;;9.13;5.80;;;;;;;20.78;68.73;99296.19;5035431;28;20208;-68
2022/06/21 01:28:35;;;;;;;13.00;5.68;;;;;;;20.59;69.31;99288.28;5033950;28;20095;-68
2022/06/21 01:31:01;;;;;;;7.88;5.57;;;;;;;20.55;69.78;99289.00;5037312;28;20021;-68
2022/06/21 01:33:39;;;;;;;9.38;5.85;;;;;;;20.36;70.63;99299.06;5035765;28;20113;-68
2022/06/21 01:36:31;;;;;;;13.25;5.50;;;;;;;20.34;70.60;99293.09;5035839;28;20405;-69
2022/06/21 01:39:02;;;;;;;7.75;5.38;;;;;;;20.29;70.37;99301.88;5036477;28;20389;-68
2022/06/21 01:41:33;;;;;;;11.18;5.93;;;;;;;20.06;71.00;99294.66;5035764;28;20056;-67
2022/06/21 01:44:03;;;;;;;5.72;4.45;;;;;;;20.03;71.34;99287.06;5033203;28;20067;-68
2022/06/21 01:46:31;;;;;;;8.65;4.75;;;;;;;20.19;70.75;99290.09;5036865;28;20357;-68
2022/06/21 01:49:03;;;;;;;7.20;4.90;;;;;;;20.20;70.27;99283.66;5035429;28;20322;-68
2022/06/21 01:51:34;;;;;;;7.63;4.22;;;;;;;20.28;69.48;99288.66;5039851;28;20096;-68
2022/06/21 01:54:03;;;;;;;7.63;4.28;;;;;;;20.21;69.14;99287.97;5040331;28;20319;-68
2022/06/21 01:56:33;;;;;;;9.50;4.10;;;;;;;20.09;69.57;99288.81;5036889;28;20405;-68
2022/06/21 01:59:08;;;;;;;7.47;4.60;;;;;;;20.05;69.99;99300.25;5037103;28;20042;-68
2022/06/21 02:01:43;;;;;;;10.48;4.75;;;;;;;19.46;72.56;99307.38;5033554;28;20244;-68
2022/06/21 02:04:10;;;;;;;6.10;4.22;;;;;;;19.48;72.95;99297.22;5037925;28;20037;-68
2022/06/21 02:06:41;;;;;;;9.65;4.38;;;;;;;19.46;73.09;99297.47;5040352;28;20124;-68
2022/06/21 02:09:14;;;;;;;5.45;4.35;;;;;;;19.69;72.42;99302.09;5036538;28;20105;-68
2022/06/21 02:11:57;;;;;;;9.65;4.15;;;;;;;19.65;72.29;99302.78;5036419;28;20048;-68
2022/06/21 02:14:29;;;;;;;7.38;4.50;;;;;;;19.61;72.56;99312.34;5039838;28;20049;-69
2022/06/21 02:17:08;;;;;;;8.88;3.90;;;;;;;19.57;72.59;99308.50;5038136;28;20070;-68
2022/06/21 02:20:08;;;;;;;7.80;4.25;;;;;;;19.35;73.16;99302.81;5036633;28;20095;-68
2022/06/21 02:22:34;;;;;;;6.43;4.65;;;;;;;19.40;73.48;99313.69;5033978;28;20272;-68
2022/06/21 02:25:01;;;;;;;17.25;4.20;;;;;;;19.65;72.32;99313.53;5037983;28;20037;-68
2022/06/21 02:27:33;;;;;;;7.55;4.13;;;;;;;19.83;71.31;99315.31;5038683;28;20969;-68
2022/06/21 02:30:04;;;;;;;12.07;4.32;;;;;;;19.89;70.81;99311.72;5039103;28;20284;-68
2022/06/21 02:32:35;;;;;;;17.02;4.63;;;;;;;19.85;70.86;99313.22;5040380;28;20079;-69
2022/06/21 02:35:08;;;;;;;6.22;4.18;;;;;;;19.80;71.49;99310.41;5042379;28;20048;-68
2022/06/21 02:37:35;;;;;;;8.25;4.43;;;;;;;19.48;72.20;99313.34;5043408;28;20071;-68
2022/06/21 02:40:05;;;;;;;8.85;3.78;;;;;;;19.15;74.10;99313.84;5039754;28;20123;-68
2022/06/21 02:42:34;;;;;;;10.88;4.50;;;;;;;19.34;73.20;99312.72;5038757;28;20022;-68
2022/06/21 02:45:47;;;;;;;6.70;4.05;;;;;;;19.42;73.09;99320.44;5039904;28;20029;-68
2022/06/21 02:48:20;;;;;;;13.13;5.35;;;;;;;19.29;73.66;99312.59;5015658;28;20426;-68
2022/06/21 02:50:53;;;;;;;7.93;4.22;;;;;;;18.96;75.75;99315.75;5036507;28;20057;-68
2022/06/21 02:53:27;;;;;;;13.40;4.55;;;;;;;19.16;75.21;99315.47;5043641;28;20274;-69
2022/06/21 02:56:13;;;;;;;10.07;4.50;;;;;;;19.37;74.46;99314.13;5041905;28;20051;-68
2022/06/21 02:58:46;;;;;;;17.60;4.55;;;;;;;19.52;73.69;99301.13;5038542;28;20041;-68
2022/06/21 03:01:35;;;;;;;9.18;5.28;;;;;;;19.66;73.36;99293.66;5039813;28;20131;-68
2022/06/21 03:04:01;;;;;;;8.90;4.13;;;;;;;19.88;72.32;99296.63;5037540;28;20346;-69
2022/06/21 03:06:30;;;;;;;9.35;4.88;;;;;;;19.93;72.09;99294.06;5039829;28;20096;-68
2022/06/21 03:09:03;;;;;;;12.18;5.03;;;;;;;20.02;71.14;99295.34;5042503;28;20132;-68
2022/06/21 03:11:34;;;;;;;6.28;4.30;;;;;;;19.87;70.93;99295.00;5042913;28;20021;-69
2022/06/21 03:14:07;;;;;;;11.75;4.70;;;;;;;19.90;70.17;99287.28;5037425;28;20131;-68
2022/06/21 03:16:34;;;;;;;7.43;4.35;;;;;;;20.06;69.50;99294.66;5038255;28;20223;-69
2022/06/21 03:19:05;;;;;;;10.80;4.53;;;;;;;20.05;69.02;99284.94;5034534;28;20037;-68
2022/06/21 03:21:33;;;;;;;8.73;4.07;;;;;;;20.08;68.72;99291.72;5039226;28;20064;-68
2022/06/21 03:24:05;;;;;;;4.85;4.05;;;;;;;19.97;68.80;99295.25;5037978;28;20392;-68
2022/06/21 03:26:33;;;;;;;7.82;4.40;;;;;;;20.02;68.59;99298.84;5041599;28;20036;-68
2022/06/21 03:28:59;;;;;;;6.85;4.38;;;;;;;20.08;68.46;99284.47;5042653;28;20033;-68
2022/06/21 03:31:32;;;;;;;7.57;3.97;;;;;;;20.13;68.22;99281.09;5039653;28;20025;-68
2022/06/21 03:34:06;;;;;;;9.15;4.50;;;;;;;20.24;68.26;99287.50;5038763;28;20037;-68
2022/06/21 03:36:32;;;;;;;;;;;;;;;20.31;67.81;99282.81;5037848;28;20327;-68
2022/06/21 03:39:02;;;;;;;13.63;4.45;;;;;;;20.32;67.83;99279.06;5037630;28;19948;-68
2022/06/21 03:41:43;;;;;;;11.70;5.50;;;;;;;20.50;67.45;99273.56;5036985;28;20029;-68
2022/06/21 03:44:25;;;;;;;7.55;4.30;;;;;;;20.53;67.51;99270.41;5041992;28;20227;-68
2022/06/21 03:47:13;;;;;;;10.50;4.93;;;;;;;20.36;67.58;99251.47;5040843;28;20100;-68
2022/06/21 03:49:45;;;;;;;10.82;4.53;;;;;;;20.58;67.31;99273.19;5036865;28;20035;-68
2022/06/21 03:52:44;;;;;;;7.07;4.72;;;;;;;20.77;66.37;99259.56;5038799;28;20029;-68
2022/06/21 03:55:22;;;;;;;9.15;4.60;;;;;;;20.93;65.93;99266.91;5042023;28;20033;-68
2022/06/21 03:57:55;;;;;;;11.45;4.40;;;;;;;20.91;65.89;99261.75;5039529;28;20059;-69
2022/06/21 04:00:21;;;;;;;14.05;5.00;;;;;;;20.88;65.70;99253.34;5038691;28;20048;-68
2022/06/21 04:03:00;;;;;;;9.45;4.03;;;;;;;21.06;64.96;99252.34;5038114;28;20295;-68
2022/06/21 04:05:35;;;;;;;5.82;4.50;;;;;;;21.03;65.22;99253.63;5038427;28;20029;-68
2022/06/21 04:08:07;;;;;;;11.52;4.78;;;;;;;21.14;64.08;99268.91;5036855;28;20140;-68
2022/06/21 04:10:48;;;;;;;11.40;4.47;;;;;;;21.13;64.96;99261.88;5034553;28;20033;-68
2022/06/21 04:13:34;;;;;;;9.57;4.85;;;;;;;21.15;65.38;99257.09;5035137;28;20040;-68
2022/06/21 04:16:07;;;;;;;15.57;6.25;;;;;;;21.33;65.57;99261.47;5037950;28;20350;-68
2022/06/21 04:19:10;;;;;;;14.98;6.00;;;;;;;21.61;64.49;99256.00;5037801;28;20037;-69
2022/06/21 04:21:38;;;;;;;10.95;5.43;;;;;;;21.72;63.72;99261.53;5002021;28;20022;-68
2022/06/21 04:24:24;;;;;;;13.48;6.45;;;;;;;21.68;63.32;99255.81;5035168;28;20057;-69
2022/06/21 04:26:56;;;;;;;11.35;6.63;;;;;;;21.53;63.27;99255.59;5040205;28;20044;-69
2022/06/21 04:29:34;;;;;;;8.05;6.55;;;;;;;22.04;62.59;99256.41;5039753;28;20163;-68
2022/06/21 04:32:20;;;;;;;10.50;5.10;;;;;;;22.77;60.48;99257.84;5042436;28;20033;-68
2022/06/21 04:34:51;;;;;;;12.98;6.07;;;;;;;23.09;58.97;99253.41;5041938;28;20041;-68
2022/06/21 04:37:24;;;;;;;6.70;4.20;;;;;;;23.29;58.30;99255.47;5042348;28;20040;-69
2022/06/21 04:40:06;;;;;;;9.52;4.70;;;;;;;23.45;57.95;99259.94;5036363;28;20041;-69
2022/06/21 04:42:34;;;;;;;7.10;4.47;;;;;;;23.27;57.51;99251.41;5042299;28;20041;-68
2022/06/21 04:45:11;;;;;;;9.55;4.07;;;;;;;23.58;56.21;99250.59;5042781;28;20084;-68
2022/06/21 04:47:39;;;;;;;6.72;4.15;;;;;;;23.24;57.18;99252.72;5042009;28;20033;-69
2022/06/21 04:50:08;;;;;;;7.45;4.57;;;;;;;23.20;58.13;99247.03;5042184;28;20032;-69
2022/06/21 04:52:39;;;;;;;11.07;6.40;;;;;;;23.65;57.41;99242.28;5041324;28;20069;-68
2022/06/21 04:55:09;;;;;;;14.30;7.03;;;;;;;23.97;56.07;99248.47;5040814;28;20270;-69
2022/06/21 04:57:35;;;;;;;11.13;9.30;;;;;;;24.26;55.23;99243.47;5041966;28;20069;-68
2022/06/21 05:00:10;;;;;;;8.63;3.95;;;;;;;24.40;53.37;99244.66;5022550;28;20032;-68
2022/06/21 05:02:57;;;;;;;6.45;3.88;;;;;;;24.61;51.94;99239.31;5041497;28;20041;-68
2022/06/21 05:05:27;;;;;;;8.68;4.22;;;;;;;24.62;51.76;99238.25;5042033;28;20021;-68
2022/06/21 05:08:07;;;;;;;9.48;6.68;;;;;;;24.39;51.43;99223.28;5041938;28;20096;-68
2022/06/21 05:10:36;;;;;;;7.10;3.90;;;;;;;24.65;51.97;99233.09;5039757;28;20041;-69
2022/06/21 05:13:06;;;;;;;9.15;4.10;;;;;;;25.04;51.79;99241.66;5041678;28;20038;-68
2022/06/21 05:15:35;;;;;;;6.05;4.15;;;;;;;25.19;51.06;99237.34;5040039;28;20041;-69
2022/06/21 05:18:11;;;;;;;7.95;5.22;;;;;;;24.97;51.57;99240.22;5039784;28;20227;-69
2022/06/21 05:20:40;;;;;;;9.20;4.45;;;;;;;24.98;51.41;99206.69;5036539;28;20030;-69
2022/06/21 05:23:07;;;;;;;4.85;4.13;;;;;;;25.29;50.94;99238.16;5040547;28;20072;-69
2022/06/21 05:25:33;;;;;;;7.80;4.55;;;;;;;25.23;51.31;99241.13;5037322;28;20045;-69
2022/06/21 05:28:01;;;;;;;12.25;4.68;;;;;;;25.34;51.60;99240.88;5037518;28;20196;-69
2022/06/21 05:30:42;;;;;;;8.57;4.55;;;;;;;25.40;48.94;99244.38;5034759;28;20025;-69
2022/06/21 05:33:20;;;;;;;9.32;5.28;;;;;;;25.32;49.40;99237.59;5034523;28;20037;-69
2022/06/21 05:35:46;;;;;;;7.70;4.47;;;;;;;25.41;49.68;99229.75;5037826;28;20230;-69
2022/06/21 05:38:24;;;;;;;9.70;3.70;;;;;;;25.37;49.18;99234.91;5039719;28;20048;-68
2022/06/21 05:41:09;;;;;;;10.50;4.57;;;;;;;25.62;49.60;99246.81;5039228;28;20216;-69
2022/06/21 05:43:42;;;;;;;6.30;4.10;;;;;;;26.00;48.02;99248.16;5040473;28;20041;-69
2022/06/21 05:46:37;;;;;;;8.60;4.38;;;;;;;26.45;47.21;99246.44;5040182;28;20021;-69
2022/06/21 05:49:08;;;;;;;5.72;4.05;;;;;;;26.46;47.05;99237.19;5036185;28;20101;-69
2022/06/21 05:51:34;;;;;;;7.05;4.35;;;;;;;26.81;46.96;99245.16;5037982;28;20083;-69
2022/06/21 05:54:10;;;;;;;6.38;3.92;;;;;;;26.93;46.75;99236.66;5039222;28;20033;-69
2022/06/21 05:56:37;;;;;;;16.50;4.00;;;;;;;26.96;45.55;99236.91;5038092;28;20644;-69
2022/06/21 05:59:11;;;;;;;9.40;3.58;;;;;;;27.36;45.08;99232.34;5037102;28;20375;-69
2022/06/21 06:01:47;;;;;;;8.52;3.47;;;;;;;27.43;43.10;99235.53;5037299;28;20036;-69
2022/06/21 06:04:29;;;;;;;5.68;3.30;;;;;;;27.45;42.29;99233.34;5036717;28;20068;-69
2022/06/21 06:06:57;;;;;;;10.88;3.65;;;;;;;27.75;42.09;99226.03;5039461;28;20040;-69
2022/06/21 06:09:30;;;;;;;9.45;3.30;;;;;;;27.95;41.27;99231.25;5044280;28;20335;-69
2022/06/21 06:12:11;;;;;;;7.32;3.30;;;;;;;27.99;40.00;99219.50;5042492;28;20099;-69
2022/06/21 06:14:58;;;;;;;6.47;2.95;;;;;;;28.18;40.57;99216.88;5041086;28;20096;-69
2022/06/21 06:17:39;;;;;;;7.85;3.17;;;;;;;28.22;39.94;99211.66;5041366;28;20093;-69
2022/06/21 06:20:11;;;;;;;7.88;3.30;;;;;;;28.57;39.66;99213.16;5041346;28;20069;-69
2022/06/21 06:22:43;;;;;;;7.35;3.17;;;;;;;28.70;38.44;99201.53;5043286;28;20034;-69
2022/06/21 06:26:01;;;;;;;15.60;2.70;;;;;;;28.88;37.22;99216.28;5042131;28;20029;-69
2022/06/21 06:28:38;;;;;;;3.83;2.67;;;;;;;29.01;36.63;99206.56;5037321;28;20111;-69
2022/06/21 06:31:36;;;;;;;5.07;2.40;;;;;;;29.00;36.29;99211.19;5041829;28;20044;-69
2022/06/21 06:34:07;;;;;;;8.43;2.65;;;;;;;29.32;35.86;99215.91;5032653;28;20045;-69
2022/06/21 06:36:38;;;;;;;10.25;2.58;;;;;;;29.45;35.52;99220.63;5037553;28;20029;-69
2022/06/21 06:39:15;;;;;;;3.97;2.58;;;;;;;29.44;35.83;99208.09;5041224;28;20037;-69
2022/06/21 06:42:06;;;;;;;6.97;2.92;;;;;;;29.59;34.63;99212.47;5043382;28;20030;-68
2022/06/21 06:44:42;;;;;;;5.50;2.80;;;;;;;30.06;35.04;99214.06;5041906;28;20061;-69
2022/06/21 06:47:15;;;;;;;4.57;2.58;;;;;;;30.49;34.85;99202.81;5038922;28;20029;-69
2022/06/21 06:50:09;;;;;;;7.13;2.95;;;;;;;30.78;34.74;99197.84;5038845;28;20342;-69
2022/06/21 06:52:51;;;;;;;8.32;3.08;;;;;;;30.37;34.31;99202.53;5040938;28;20029;-69
2022/06/21 06:55:31;;;;;;;4.32;2.80;;;;;;;30.47;34.72;99194.13;5041136;28;20034;-69
2022/06/21 06:58:02;;;;;;;11.93;6.47;;;;;;;30.48;34.49;99193.81;5041251;28;20215;-69
2022/06/21 07:00:39;;;;;;;7.93;2.70;;;;;;;30.75;34.62;99203.09;5039969;28;20148;-69
2022/06/21 07:03:18;;;;;;;7.40;2.53;;;;;;;30.88;34.53;99190.50;5038348;28;20034;-69
2022/06/21 07:05:50;;;;;;;7.32;2.22;;;;;;;30.58;34.78;99195.53;5028661;28;20361;-69
2022/06/21 07:08:41;;;;;;;16.33;3.42;;;;;;;30.46;34.21;99195.25;5038713;28;20117;-68
2022/06/21 07:11:19;;;;;;;46.75;6.57;;;;;;;30.56;34.56;99196.94;5038571;28;20237;-69
2022/06/21 07:13:45;;;;;;;3.55;2.22;;;;;;;30.69;34.97;99196.13;5038133;28;20338;-69
2022/06/21 07:16:17;;;;;;;19.15;4.05;;;;;;;31.07;34.22;99183.75;5038884;28;20027;-69
2022/06/21 07:18:47;;;;;;;27.00;4.47;;;;;;;30.98;33.93;99196.53;5039738;28;20104;-69
2022/06/21 07:21:14;;;;;;;7.20;3.20;;;;;;;30.64;34.98;99183.41;5039030;28;20507;-69
2022/06/21 07:23:40;;;;;;;8.38;2.95;;;;;;;31.08;34.24;99182.63;5039030;28;20307;-69
2022/06/21 07:26:38;;;;;;;3.92;2.67;;;;;;;31.39;33.64;99190.13;5039681;28;20030;-69
2022/06/21 07:29:09;;;;;;;6.65;2.40;;;;;;;31.53;33.29;99185.38;5037529;28;20030;-69
2022/06/21 07:31:43;;;;;;;6.75;2.20;;;;;;;31.70;33.77;99185.50;5039166;28;20250;-69
2022/06/21 07:34:15;;;;;;;4.88;2.97;;;;;;;31.78;34.59;99188.59;5039481;28;20053;-69
2022/06/21 07:36:57;;;;;;;5.60;2.50;;;;;;;32.22;33.07;99176.66;5038971;28;20234;-69
2022/06/21 07:39:31;;;;;;;7.47;2.40;;;;;;;32.58;33.25;99168.25;5039255;28;20052;-69
2022/06/21 07:42:06;;;;;;;3.97;2.42;;;;;;;32.84;31.74;99174.56;5038118;28;20033;-69
2022/06/21 07:44:54;;;;;;;39.90;5.30;;;;;;;32.71;31.89;99167.28;5037924;28;20413;-69
2022/06/21 07:47:29;;;;;;;7.93;2.58;;;;;;;32.53;32.11;99163.72;5037577;28;20091;-70
2022/06/21 07:49:59;;;;;;;62.80;7.32;;;;;;;32.60;31.96;99161.31;5038113;28;20083;-69
2022/06/21 07:52:33;;;;;;;6.22;2.88;;;;;;;32.83;31.17;99163.91;5038525;28;20021;-69
2022/06/21 07:55:23;;;;;;;15.15;3.17;;;;;;;33.08;31.33;99162.28;5038993;28;20068;-69
2022/06/21 07:57:57;;;;;;;9.88;2.50;;;;;;;33.31;31.24;99161.81;5038280;28;20209;-69
2022/06/21 08:00:26;;;;;;;132.27;12.00;;;;;;;33.08;30.54;99162.28;5038822;28;20032;-69
2022/06/21 08:08:54;;;;;;;12.13;2.42;;;;;;;33.11;30.69;99135.00;5038455;28;20052;-69
2022/06/21 08:11:28;;;;;;;10.00;2.33;;;;;;;33.45;31.11;99158.06;5037593;28;20133;-69
2022/06/21 08:13:54;;;;;;;5.78;2.38;;;;;;;33.70;31.63;99159.91;5038292;28;20069;-69
2022/06/21 08:16:24;;;;;;;3.50;2.22;;;;;;;33.85;30.91;99159.41;5037891;28;20052;-69
2022/06/21 08:19:07;;;;;;;7.35;2.80;;;;;;;34.03;30.56;99159.31;5038399;28;20044;-70
2022/06/21 08:21:44;;;;;;;5.28;2.13;;;;;;;33.91;30.39;99160.03;5038509;28;20033;-70
2022/06/21 08:24:18;;;;;;;6.20;2.88;;;;;;;33.83;28.95;99153.44;5038294;28;20215;-70
2022/06/21 08:26:43;;;;;;;3.58;2.55;;;;;;;33.73;30.39;99166.69;5037488;28;20030;-70
2022/06/21 08:29:27;;;;;;;5.15;2.50;;;;;;;33.92;31.27;99167.94;5038536;28;20084;-70
2022/06/21 08:32:02;;;;;;;4.20;2.40;;;;;;;33.93;30.63;99153.06;5037139;28;20255;-70
2022/06/21 08:34:44;;;;;;;9.63;2.72;;;;;;;34.04;30.22;99172.72;5038270;28;20075;-70
2022/06/21 08:37:15;;;;;;;7.50;2.55;;;;;;;33.39;30.91;99165.69;5037769;28;20022;-70
2022/06/21 08:40:18;;;;;;;17.42;2.72;;;;;;;33.58;30.06;99157.88;5036800;28;20056;-69
2022/06/21 08:43:26;;;;;;;7.70;2.73;;;;;;;33.34;30.42;99163.09;5043621;28;20064;-70
2022/06/21 08:45:57;;;;;;;7.63;2.83;;;;;;;33.01;31.37;99180.03;5036772;28;20045;-69
2022/06/21 08:48:45;;;;;;;30.95;3.80;;;;;;;33.42;30.28;99181.50;5037293;28;20044;-69
2022/06/21 08:51:59;;;;;;;2.33;1.95;;;;;;;33.83;30.96;99183.63;5036529;28;20036;-70
2022/06/21 08:54:49;;;;;;;10.07;2.72;;;;;;;33.64;31.41;99175.78;5024167;28;20331;-70
2022/06/21 08:57:36;;;;;;;95.45;7.25;;;;;;;34.16;30.97;99175.56;5035948;28;20033;-70
2022/06/21 09:00:09;;;;;;;6.90;2.72;;;;;;;34.38;28.97;99171.75;5036406;28;20032;-70
2022/06/21 09:02:37;;;;;;;65.95;7.18;;;;;;;34.38;29.38;99168.22;5035914;28;20105;-70
2022/06/21 09:05:15;;;;;;;13.60;2.60;;;;;;;34.36;29.41;99163.06;5038162;28;20029;-70
2022/06/21 09:08:22;;;;;;;4.82;2.58;;;;;;;34.30;28.85;99167.06;5035157;28;20091;-69
2022/06/21 09:11:21;;;;;;;4.43;2.50;;;;;;;34.60;29.00;99153.34;5039644;28;20053;-69
2022/06/21 09:14:07;;;;;;;127.50;14.60;;;;;;;34.65;28.55;99156.69;5040508;28;20135;-70
2022/06/21 09:16:54;;;;;;;4.07;2.22;;;;;;;34.62;29.04;99151.06;5040027;28;20033;-70
2022/06/21 09:19:39;;;;;;;46.53;6.00;;;;;;;34.66;28.95;99154.75;5039891;28;20390;-70
2022/06/21 09:22:26;;;;;;;8.77;2.55;;;;;;;34.88;29.26;99155.22;5039956;28;20296;-70
2022/06/21 09:25:05;;;;;;;7.13;2.63;;;;;;;34.97;28.31;99144.16;5040164;28;20361;-70
2022/06/21 09:27:46;;;;;;;20.45;3.63;;;;;;;34.85;28.83;99155.09;5041318;28;20061;-69
2022/06/21 09:30:17;;;;;;;21.23;4.13;;;;;;;34.64;29.03;99155.09;5041449;28;20037;-70
2022/06/21 09:33:06;;;;;;;14.35;3.10;;;;;;;34.53;29.25;99140.94;5040941;28;20030;-70
2022/06/21 09:36:05;;;;;;;4.75;2.60;;;;;;;34.59;29.02;99136.03;5040941;28;20052;-70
2022/06/21 09:39:02;;;;;;;6.68;2.20;;;;;;;34.41;29.54;99129.06;5040468;28;20226;-70
2022/06/21 09:42:06;;;;;;;5.13;2.47;;;;;;;34.26;28.69;99109.22;5040035;28;20072;-70
2022/06/21 09:44:43;;;;;;;4.13;2.20;;;;;;;34.22;30.24;99112.97;5041490;28;20049;-70
2022/06/21 09:47:25;;;;;;;6.18;2.38;;;;;;;34.01;30.27;99110.19;5041179;28;20022;-70
2022/06/21 09:50:22;;;;;;;4.15;2.20;;;;;;;34.13;28.81;99117.72;5041283;28;20044;-70
2022/06/21 09:52:47;;;;;;;5.18;2.30;;;;;;;34.01;29.73;99115.69;5041027;28;20412;-70
2022/06/21 09:55:40;;;;;;;31.75;3.50;;;;;;;34.06;28.84;99110.00;5041016;28;20033;-70
2022/06/21 09:58:47;;;;;;;17.65;2.85;;;;;;;34.07;28.66;99106.13;5040802;28;20251;-69
2022/06/21 10:01:15;;;;;;;10.07;2.67;;;;;;;34.10;29.77;99102.72;5039162;28;20041;-70
2022/06/21 10:04:13;;;;;;;15.77;3.20;;;;;;;34.23;30.08;99095.34;5038672;28;20265;-70
2022/06/21 10:06:41;;;;;;;4.28;2.20;;;;;;;34.12;28.80;99099.63;5040301;28;20282;-69
2022/06/21 10:09:27;;;;;;;4.43;2.10;;;;;;;34.06;29.70;99085.28;5040611;28;20037;-70
2022/06/21 10:12:11;;;;;;;82.63;8.43;;;;;;;34.15;29.63;99091.53;5040859;28;20223;-70
2022/06/21 10:14:56;;;;;;;66.13;6.38;;;;;;;34.10;28.24;99083.47;5040585;28;20393;-70
2022/06/21 10:17:37;;;;;;;13.60;2.97;;;;;;;34.05;28.95;99074.63;5041244;28;20037;-70
2022/06/21 10:20:21;;;;;;;4.85;2.13;;;;;;;34.15;27.78;99069.53;5039941;28;20045;-69
2022/06/21 10:23:08;;;;;;;32.30;4.60;;;;;;;34.24;28.51;99067.53;5041189;28;20060;-70
2022/06/21 10:26:04;;;;;;;102.85;11.70;;;;;;;34.29;26.17;99066.53;5039627;28;20315;-70
2022/06/21 10:28:41;;;;;;;11.70;3.15;;;;;;;34.25;27.09;99058.16;5040882;28;20053;-70
2022/06/21 10:31:15;;;;;;;32.97;3.97;;;;;;;34.28;27.50;99051.97;5040832;28;20030;-70
2022/06/21 10:34:22;;;;;;;6.10;2.35;;;;;;;34.38;27.69;99052.78;5040497;28;20054;-70
2022/06/21 10:37:07;;;;;;;51.30;7.40;;;;;;;34.45;27.54;99050.28;5040665;28;20093;-70
2022/06/21 10:39:39;;;;;;;23.85;3.28;;;;;;;34.35;24.53;99047.97;5040401;28;20100;-70
2022/06/21 10:42:49;;;;;;;6.80;2.70;;;;;;;34.10;26.20;99039.53;5040854;28;20294;-70
2022/06/21 10:45:26;;;;;;;49.67;5.40;;;;;;;34.36;26.26;99046.81;5040681;28;20327;-70
2022/06/21 10:48:31;;;;;;;7.70;3.00;;;;;;;34.21;25.88;99050.91;5039335;28;20100;-70
2022/06/21 10:51:43;;;;;;;4.30;2.78;;;;;;;34.23;27.80;99043.13;5040929;28;20282;-69
2022/06/21 10:54:27;;;;;;;3.30;2.60;;;;;;;34.14;28.28;99043.22;5041755;28;20088;-70
2022/06/21 10:57:11;;;;;;;52.97;6.32;;;;;;;34.31;28.54;99044.22;5044024;28;20045;-70
2022/06/21 11:02:47;;;;;;;7.35;3.47;;;;;;;34.32;29.01;99034.81;5043864;28;20353;-70
2022/06/21 11:05:33;;;;;;;8.13;3.40;;;;;;;34.16;28.43;99031.88;5043922;28;20041;-70
2022/06/21 11:08:13;;;;;;;6.63;3.30;;;;;;;34.36;29.16;99039.38;5042196;28;20107;-70
2022/06/21 11:11:08;;;;;;;16.25;4.18;;;;;;;34.16;28.37;99048.38;5043844;28;20334;-70
2022/06/21 11:13:40;;;;;;;7.72;3.78;;;;;;;34.10;28.16;99038.72;5042617;28;20069;-70
2022/06/21 11:16:29;;;;;;;10.90;3.92;;;;;;;34.12;28.65;99037.25;5043705;28;20032;-70
2022/06/21 11:19:01;;;;;;;9.63;3.85;;;;;;;34.18;30.16;99041.41;5043494;28;20204;-70
2022/06/21 11:21:39;;;;;;;7.05;4.40;;;;;;;34.32;29.01;99030.16;5042525;28;20037;-70
2022/06/21 11:24:16;;;;;;;14.95;4.55;;;;;;;34.31;29.93;99041.47;5043466;28;20033;-70
2022/06/21 11:26:59;;;;;;;6.82;3.88;;;;;;;34.38;28.66;99047.28;5043464;28;20045;-70
2022/06/21 11:29:33;;;;;;;8.82;4.60;;;;;;;34.08;29.31;99049.25;5043658;28;20029;-70
2022/06/21 11:32:16;;;;;;;8.20;4.03;;;;;;;34.24;28.88;99031.81;5043645;28;20033;-70
2022/06/21 11:35:29;;;;;;;13.27;4.35;;;;;;;34.20;29.72;99047.38;5043243;28;20323;-70
2022/06/21 11:38:19;;;;;;;45.55;7.13;;;;;;;34.30;30.09;99037.91;5042176;28;20304;-70
2022/06/21 11:41:02;;;;;;;20.00;4.57;;;;;;;34.25;29.32;99035.38;5043256;28;20086;-70
2022/06/21 11:43:42;;;;;;;9.07;4.47;;;;;;;34.28;29.50;99038.25;5042078;28;20091;-70
2022/06/21 11:46:22;;;;;;;9.90;5.03;;;;;;;34.37;29.38;99040.19;5043221;28;20048;-70
2022/06/21 11:49:12;;;;;;;9.05;4.40;;;;;;;34.47;29.50;99040.56;5043047;28;20036;-70
2022/06/21 11:52:11;;;;;;;11.93;4.70;;;;;;;34.55;29.51;99025.13;5043067;28;20079;-70
2022/06/21 11:54:54;;;;;;;38.47;7.30;;;;;;;34.49;29.92;99030.03;5042843;28;20033;-70
2022/06/21 11:58:03;;;;;;;17.10;5.27;;;;;;;34.53;30.03;99014.47;5043009;28;20227;-70
2022/06/21 12:00:40;;;;;;;15.80;4.55;;;;;;;34.33;30.35;99017.22;5041895;28;20090;-69
2022/06/21 12:03:17;;;;;;;16.27;4.55;;;;;;;34.35;30.43;99020.47;5042270;28;20116;-70
2022/06/21 12:05:53;;;;;;;20.88;5.70;;;;;;;34.43;30.12;99016.84;5042673;28;20104;-70
2022/06/21 12:08:30;;;;;;;12.82;5.22;;;;;;;34.45;30.25;99007.13;5042643;28;20084;-70
2022/06/21 12:11:10;;;;;;;10.88;4.82;;;;;;;34.31;31.32;99014.78;5041417;28;20105;-70
2022/06/21 12:13:52;;;;;;;37.05;6.75;;;;;;;34.06;31.48;99013.06;5042294;28;20037;-70
2022/06/21 12:16:26;;;;;;;12.23;5.07;;;;;;;33.86;30.67;99015.47;5042537;28;20029;-70
2022/06/21 12:18:57;;;;;;;12.27;5.95;;;;;;;33.99;31.37;99002.59;5042289;28;20033;-70
2022/06/21 12:21:29;;;;;;;10.27;7.30;;;;;;;34.11;31.94;99008.16;5042481;28;20037;-70
2022/06/21 12:24:07;;;;;;;11.50;5.97;;;;;;;34.06;31.94;98996.56;5041182;28;20044;-70
2022/06/21 12:26:35;;;;;;;38.83;7.72;;;;;;;34.11;32.93;99002.66;5042471;28;20033;-70
2022/06/21 12:29:05;;;;;;;12.57;5.65;;;;;;;34.30;31.30;98998.63;5040935;28;20223;-69